createdAt,value
2019-05-20T00:04:39.301Z,99.90
2019-05-20T00:09:42.488Z,99.90
2019-05-20T00:14:43.885Z,99.90
2019-05-20T00:19:50.837Z,99.90
2019-05-20T00:24:55.043Z,99.90
2019-05-20T00:29:57.446Z,99.90
2019-05-20T00:34:59.956Z,99.90
2019-05-20T00:40:06.928Z,99.90
2019-05-20T00:45:09.445Z,99.90
2019-05-20T00:50:12.961Z,99.90
2019-05-20T00:55:29.865Z,99.90
2019-05-20T01:00:33.741Z,99.90
2019-05-20T01:05:35.073Z,99.90
2019-05-20T01:10:36.478Z,99.90
2019-05-20T01:15:37.772Z,99.90
2019-05-20T01:20:39.154Z,99.90
2019-05-20T01:25:41.416Z,99.90
2019-05-20T01:30:44.153Z,99.90
2019-05-20T01:35:47.196Z,99.90
2019-05-20T01:40:51.120Z,99.90
2019-05-20T01:45:56.633Z,99.90
2019-05-20T01:50:57.934Z,99.90
2019-05-20T01:56:00.449Z,99.90
2019-05-20T02:01:02.953Z,99.90
2019-05-20T02:06:04.732Z,99.90
2019-05-20T02:11:06.167Z,99.90
2019-05-20T02:16:08.442Z,99.90
2019-05-20T02:21:10.015Z,99.90
2019-05-20T02:26:11.454Z,99.90
2019-05-20T02:31:14.794Z,99.80
2019-05-20T02:36:19.229Z,99.70
2019-05-20T02:41:20.932Z,99.60
2019-05-20T02:46:22.564Z,99.40
2019-05-20T02:51:31.546Z,99.30
2019-05-20T02:56:33.441Z,99.30
2019-05-20T03:01:34.981Z,99.20
2019-05-20T03:06:36.329Z,99.20
2019-05-20T03:11:37.957Z,99.10
2019-05-20T03:16:45.305Z,99.20
2019-05-20T03:21:48.531Z,99.20
2019-05-20T03:26:51.814Z,99.20
2019-05-20T03:31:53.293Z,99.30
2019-05-20T03:36:56.496Z,99.30
2019-05-20T03:41:57.751Z,99.30
2019-05-20T03:46:59.275Z,99.30
2019-05-20T03:52:02.132Z,99.30
2019-05-20T03:57:07.120Z,99.40
2019-05-20T04:02:08.452Z,99.40
2019-05-20T04:07:11.809Z,99.40
2019-05-20T04:12:15.120Z,99.40
2019-05-20T04:17:18.738Z,99.40
2019-05-20T04:22:22.617Z,99.40
2019-05-20T04:27:24.178Z,99.50
2019-05-20T04:32:27.938Z,99.40
2019-05-20T04:37:29.331Z,99.50
2019-05-20T04:42:30.683Z,99.40
2019-05-20T04:47:31.964Z,99.40
2019-05-20T04:52:33.284Z,99.40
2019-05-20T04:57:36.460Z,99.40
2019-05-20T05:02:37.728Z,99.30
2019-05-20T05:07:39.015Z,99.20
2019-05-20T05:12:41.276Z,99.20
2019-05-20T05:17:46.284Z,99.20
2019-05-20T05:22:47.908Z,99.20
2019-05-20T05:27:49.796Z,99.10
2019-05-20T05:32:51.222Z,99.10
2019-05-20T05:38:11.186Z,99.00
2019-05-20T05:43:12.686Z,98.90
2019-05-20T05:48:17.059Z,98.90
2019-05-20T05:53:20.046Z,99.00
2019-05-20T05:58:21.723Z,98.90
2019-05-20T06:03:24.807Z,98.90
2019-05-20T06:08:27.376Z,98.90
2019-05-20T06:13:30.096Z,99.00
2019-05-20T06:18:35.060Z,98.90
2019-05-20T06:23:36.394Z,98.90
2019-05-20T06:28:37.659Z,98.90
2019-05-20T06:33:39.539Z,98.90
2019-05-20T06:38:43.339Z,98.90
2019-05-20T06:43:46.331Z,98.90
2019-05-20T06:48:53.047Z,98.90
2019-05-20T06:53:56.298Z,98.80
2019-05-20T06:58:57.730Z,98.80
2019-05-20T07:04:00.551Z,98.80
2019-05-20T07:09:02.216Z,98.80
2019-05-20T07:14:03.522Z,98.80
2019-05-20T07:19:08.521Z,98.60
2019-05-20T07:24:09.986Z,98.60
2019-05-20T07:29:11.293Z,98.40
2019-05-20T07:34:12.883Z,98.40
2019-05-20T07:39:18.174Z,98.30
2019-05-20T07:44:24.804Z,98.20
2019-05-20T07:49:26.991Z,98.50
2019-05-20T07:54:29.115Z,98.20
2019-05-20T07:59:40.933Z,98.20
2019-05-20T08:04:43.426Z,98.10
2019-05-20T08:09:46.450Z,98.10
2019-05-20T08:14:48.685Z,97.90
2019-05-20T08:19:49.927Z,97.90
2019-05-20T08:24:51.365Z,98.00
2019-05-20T08:29:52.966Z,98.00
2019-05-20T08:34:55.320Z,98.00
2019-05-20T08:39:58.476Z,98.10
2019-05-20T08:45:03.026Z,98.10
2019-05-20T08:50:08.706Z,98.00
2019-05-20T08:55:30.840Z,98.00
2019-05-20T09:00:34.695Z,97.90
2019-05-20T09:05:36.262Z,98.30
2019-05-20T09:10:39.613Z,97.90
2019-05-20T09:15:45.453Z,97.80
2019-05-20T09:20:47.889Z,98.00
2019-05-20T09:25:52.573Z,97.60
2019-05-20T09:30:55.506Z,97.50
2019-05-20T09:36:00.947Z,97.30
2019-05-20T09:41:02.809Z,97.20
2019-05-20T09:46:08.405Z,97.00
2019-05-20T09:51:10.145Z,96.90
2019-05-20T09:56:13.651Z,96.80
2019-05-20T10:01:15.043Z,96.90
2019-05-20T10:06:18.623Z,96.90
2019-05-20T10:11:23.984Z,96.80
2019-05-20T10:16:25.742Z,96.60
2019-05-20T10:21:30.516Z,96.60
2019-05-20T10:26:33.285Z,96.40
2019-05-20T10:31:34.580Z,96.30
2019-05-20T10:36:37.470Z,96.20
2019-05-20T10:41:40.516Z,96.10
2019-05-20T10:46:46.006Z,96.00
2019-05-20T10:51:47.604Z,95.80
2019-05-20T10:56:48.889Z,95.70
2019-05-20T11:01:50.483Z,95.50
2019-05-20T11:06:54.023Z,95.60
2019-05-20T11:11:57.087Z,95.70
2019-05-20T11:16:58.495Z,95.50
2019-05-20T11:21:59.840Z,95.80
2019-05-20T11:27:03.546Z,95.50
2019-05-20T11:32:05.098Z,95.60
2019-05-20T11:37:08.901Z,95.50
2019-05-20T11:42:14.016Z,95.50
2019-05-20T11:47:15.909Z,95.50
2019-05-20T11:52:17.407Z,95.50
2019-05-20T11:57:23.613Z,95.40
2019-05-20T12:02:26.143Z,95.40
2019-05-20T12:07:31.102Z,95.50
2019-05-20T12:12:34.538Z,95.40
2019-05-20T12:17:38.279Z,95.20
2019-05-20T12:22:39.603Z,95.10
2019-05-20T12:27:45.620Z,95.10
2019-05-20T12:33:15.650Z,95.10
2019-05-20T12:37:55.504Z,95.00
2019-05-20T12:42:56.928Z,94.60
2019-05-20T12:47:59.783Z,94.60
2019-05-20T12:53:02.271Z,94.40
2019-05-20T12:58:03.623Z,94.10
2019-05-20T13:03:05.880Z,94.00
2019-05-20T13:08:09.161Z,93.90
2019-05-20T13:13:10.507Z,93.60
2019-05-20T13:18:12.732Z,93.40
2019-05-20T13:23:15.495Z,93.30
2019-05-20T13:28:19.164Z,93.30
2019-05-20T13:33:23.643Z,93.30
2019-05-20T13:38:27.129Z,93.20
2019-05-20T13:43:28.396Z,93.20
2019-05-20T13:48:30.343Z,93.10
2019-05-20T13:53:34.746Z,93.00
2019-05-20T13:58:36.030Z,92.90
2019-05-20T14:03:38.552Z,92.70
2019-05-20T14:08:39.795Z,92.70
2019-05-20T14:13:44.662Z,92.70
2019-05-20T14:18:46.102Z,92.80
2019-05-20T14:23:47.411Z,92.70
2019-05-20T14:28:48.857Z,92.60
2019-05-20T14:33:52.046Z,92.60
2019-05-20T14:38:53.379Z,92.60
2019-05-20T14:43:56.089Z,92.40
2019-05-20T14:49:02.817Z,92.40
2019-05-20T14:54:06.846Z,92.30
2019-05-20T14:59:11.979Z,92.10
2019-05-20T15:04:13.304Z,91.90
2019-05-20T15:09:14.599Z,91.90
2019-05-20T15:14:16.342Z,91.80
2019-05-20T15:19:17.725Z,91.90
2019-05-20T15:24:19.116Z,92.00
2019-05-20T15:29:28.006Z,92.20
2019-05-20T15:34:24.466Z,92.20
2019-05-20T15:39:25.764Z,92.50
2019-05-20T15:44:27.031Z,92.80
2019-05-20T15:49:30.342Z,92.90
2019-05-20T15:54:33.917Z,93.00
2019-05-20T15:59:46.154Z,93.10
2019-05-20T16:04:42.631Z,93.20
2019-05-20T16:09:46.122Z,93.40
2019-05-20T16:14:51.173Z,93.50
2019-05-20T16:19:50.753Z,93.70
2019-05-20T16:24:52.141Z,94.00
2019-05-20T16:30:05.598Z,94.20
2019-05-20T16:34:57.112Z,94.40
2019-05-20T16:39:58.413Z,94.40
2019-05-20T16:45:00.012Z,94.50
2019-05-20T16:50:03.325Z,94.80
2019-05-20T16:55:05.263Z,95.10
2019-05-20T17:00:27.417Z,95.10
2019-05-20T17:05:11.768Z,95.20
2019-05-20T17:10:16.087Z,95.30
2019-05-20T17:15:18.657Z,95.40
2019-05-20T17:20:20.478Z,95.50
2019-05-20T17:25:25.293Z,95.50
2019-05-20T17:30:28.160Z,95.60
2019-05-20T17:35:31.246Z,95.70
2019-05-20T17:40:32.701Z,96.00
2019-05-20T17:45:37.146Z,96.00
2019-05-20T17:50:40.655Z,96.20
2019-05-20T17:55:43.583Z,96.20
2019-05-20T18:00:44.906Z,96.20
2019-05-20T18:05:47.694Z,96.20
2019-05-20T18:10:49.010Z,96.10
2019-05-20T18:15:50.398Z,96.20
2019-05-20T18:20:51.884Z,96.20
2019-05-20T18:25:53.162Z,96.20
2019-05-20T18:30:59.645Z,96.20
2019-05-20T18:36:01.719Z,96.20
2019-05-20T18:41:03.130Z,96.30
2019-05-20T18:46:10.046Z,96.30
2019-05-20T18:51:11.484Z,96.30
2019-05-20T18:56:14.085Z,96.30
2019-05-20T19:01:19.570Z,96.40
2019-05-20T19:06:22.860Z,96.30
2019-05-20T19:11:31.455Z,96.40
2019-05-20T19:16:33.263Z,96.60
2019-05-20T19:21:34.710Z,96.90
2019-05-20T19:26:36.130Z,96.90
2019-05-20T19:31:37.782Z,97.20
2019-05-20T19:36:39.167Z,97.40
2019-05-20T19:41:43.323Z,97.70
2019-05-20T19:46:44.832Z,98.00
2019-05-20T19:51:49.370Z,98.50
2019-05-20T19:56:51.005Z,98.10
2019-05-20T20:02:17.455Z,98.30
2019-05-20T20:07:33.848Z,98.50
2019-05-20T20:12:51.439Z,98.40
2019-05-20T20:17:53.610Z,98.40
2019-05-20T20:22:56.498Z,98.40
2019-05-20T20:27:59.001Z,98.40
2019-05-20T20:33:00.316Z,98.20
2019-05-20T20:38:03.704Z,98.10
2019-05-20T20:43:05.019Z,98.00
2019-05-20T20:48:06.480Z,98.10
2019-05-20T20:53:09.161Z,98.20
2019-05-20T20:58:11.552Z,98.30
2019-05-20T21:03:12.878Z,98.50
2019-05-20T21:08:14.918Z,98.70
2019-05-20T21:13:20.883Z,98.90
2019-05-20T21:18:25.686Z,99.00
2019-05-20T21:23:27.394Z,99.00
2019-05-20T21:28:28.756Z,99.10
2019-05-20T21:33:30.356Z,99.20
2019-05-20T21:38:33.891Z,99.40
2019-05-20T21:43:39.915Z,99.50
2019-05-20T21:48:42.185Z,99.60
2019-05-20T21:53:43.512Z,99.60
2019-05-20T21:58:46.355Z,99.80
2019-05-20T22:03:52.730Z,99.80
2019-05-20T22:08:55.181Z,99.90
2019-05-20T22:13:57.899Z,99.90
2019-05-20T22:18:59.883Z,99.90
2019-05-20T22:24:04.189Z,99.90
2019-05-20T22:29:05.929Z,99.90
2019-05-20T22:34:13.919Z,99.90
2019-05-20T22:39:18.299Z,99.90
2019-05-20T22:44:21.707Z,99.90
2019-05-20T22:49:24.440Z,99.90
2019-05-20T22:54:28.427Z,99.90
2019-05-20T22:59:30.125Z,99.90
2019-05-20T23:04:31.564Z,99.90
2019-05-20T23:09:35.998Z,99.90
2019-05-20T23:14:40.089Z,99.90
2019-05-20T23:25:01.199Z,99.90
2019-05-20T23:30:05.737Z,99.90
2019-05-20T23:35:07.665Z,99.90
2019-05-20T23:40:13.488Z,99.90
2019-05-20T23:45:20.176Z,99.90
2019-05-20T23:50:21.508Z,99.90
2019-05-20T23:55:29.185Z,99.90
